sensor_id;sensor_type;location;lat;lon;timestamp;pressure;altitude;pressure_sealevel;temperature;humidity
26697;BME280;14312;52.614;13.496;2023-04-10T00:00:28;101977.72;;;8.69;58.61
26697;BME280;14312;52.614;13.496;2023-04-10T00:03:16;101980.56;;;8.68;58.33
26697;BME280;14312;52.614;13.496;2023-04-10T00:06:02;101980.56;;;8.68;58.63
26697;BME280;14312;52.614;13.496;2023-04-10T00:08:48;101972.81;;;8.66;58.65
26697;BME280;14312;52.614;13.496;2023-04-10T00:11:34;101974.84;;;8.64;58.04
26697;BME280;14312;52.614;13.496;2023-04-10T00:14:20;101969.72;;;8.62;58.48
26697;BME280;14312;52.614;13.496;2023-04-10T00:17:08;101973.56;;;8.60;58.00
26697;BME280;14312;52.614;13.496;2023-04-10T00:19:54;101967.00;;;8.56;58.00
26697;BME280;14312;52.614;13.496;2023-04-10T00:22:40;101966.78;;;8.51;58.22
26697;BME280;14312;52.614;13.496;2023-04-10T00:25:27;101963.84;;;8.46;58.22
26697;BME280;14312;52.614;13.496;2023-04-10T00:28:13;101961.97;;;8.40;57.88
26697;BME280;14312;52.614;13.496;2023-04-10T00:31:01;101960.72;;;8.36;58.29
26697;BME280;14312;52.614;13.496;2023-04-10T00:33:47;101962.13;;;8.32;58.15
26697;BME280;14312;52.614;13.496;2023-04-10T00:36:33;101954.50;;;8.29;58.16
26697;BME280;14312;52.614;13.496;2023-04-10T00:39:19;101951.41;;;8.25;58.29
26697;BME280;14312;52.614;13.496;2023-04-10T00:42:05;101946.50;;;8.22;58.56
26697;BME280;14312;52.614;13.496;2023-04-10T00:44:54;101946.88;;;8.19;58.41
26697;BME280;14312;52.614;13.496;2023-04-10T00:47:39;101940.13;;;8.16;58.66
26697;BME280;14312;52.614;13.496;2023-04-10T00:50:26;101942.97;;;8.15;58.76
26697;BME280;14312;52.614;13.496;2023-04-10T00:53:12;101929.25;;;8.11;58.75
26697;BME280;14312;52.614;13.496;2023-04-10T00:56:00;101927.81;;;8.09;58.78
26697;BME280;14312;52.614;13.496;2023-04-10T00:58:46;101926.53;;;8.05;58.72
26697;BME280;14312;52.614;13.496;2023-04-10T01:01:32;101932.03;;;8.03;58.56
26697;BME280;14312;52.614;13.496;2023-04-10T01:04:19;101928.13;;;7.99;58.29
26697;BME280;14312;52.614;13.496;2023-04-10T01:07:23;101924.00;;;7.97;59.55
26697;BME280;14312;52.614;13.496;2023-04-10T01:10:40;101932.56;;;7.92;60.02
26697;BME280;14312;52.614;13.496;2023-04-10T01:13:49;101932.91;;;7.89;59.66
26697;BME280;14312;52.614;13.496;2023-04-10T01:16:46;101933.31;;;7.86;59.39
26697;BME280;14312;52.614;13.496;2023-04-10T01:19:43;101936.34;;;7.83;58.95
26697;BME280;14312;52.614;13.496;2023-04-10T01:22:45;101935.72;;;7.81;59.57
26697;BME280;14312;52.614;13.496;2023-04-10T01:25:40;101937.34;;;7.82;59.72
26697;BME280;14312;52.614;13.496;2023-04-10T01:29:00;101936.56;;;7.81;60.06
26697;BME280;14312;52.614;13.496;2023-04-10T01:32:01;101933.25;;;7.79;59.37
26697;BME280;14312;52.614;13.496;2023-04-10T01:34:50;101932.44;;;7.79;59.12
26697;BME280;14312;52.614;13.496;2023-04-10T01:37:39;101931.78;;;7.77;59.34
26697;BME280;14312;52.614;13.496;2023-04-10T01:40:28;101936.47;;;7.75;59.28
26697;BME280;14312;52.614;13.496;2023-04-10T01:43:16;101936.84;;;7.72;58.86
26697;BME280;14312;52.614;13.496;2023-04-10T01:46:03;101927.44;;;7.69;58.91
26697;BME280;14312;52.614;13.496;2023-04-10T01:48:51;101927.38;;;7.63;58.91
26697;BME280;14312;52.614;13.496;2023-04-10T01:51:39;101933.06;;;7.60;58.94
26697;BME280;14312;52.614;13.496;2023-04-10T01:54:27;101921.16;;;7.56;59.19
26697;BME280;14312;52.614;13.496;2023-04-10T01:57:14;101932.16;;;7.53;59.36
26697;BME280;14312;52.614;13.496;2023-04-10T02:00:02;101928.88;;;7.51;59.32
26697;BME280;14312;52.614;13.496;2023-04-10T02:02:48;101923.94;;;7.47;59.52
26697;BME280;14312;52.614;13.496;2023-04-10T02:05:48;101929.88;;;7.50;60.53
26697;BME280;14312;52.614;13.496;2023-04-10T02:08:41;101922.28;;;7.46;59.80
26697;BME280;14312;52.614;13.496;2023-04-10T02:11:31;101922.28;;;7.46;59.40
26697;BME280;14312;52.614;13.496;2023-04-10T02:14:20;101923.31;;;7.45;59.62
26697;BME280;14312;52.614;13.496;2023-04-10T02:17:07;101924.31;;;7.44;59.27
26697;BME280;14312;52.614;13.496;2023-04-10T02:19:55;101921.22;;;7.41;59.69
26697;BME280;14312;52.614;13.496;2023-04-10T02:22:42;101917.72;;;7.40;59.40
26697;BME280;14312;52.614;13.496;2023-04-10T02:25:32;101924.88;;;7.40;60.05
26697;BME280;14312;52.614;13.496;2023-04-10T02:28:18;101926.69;;;7.39;59.54
26697;BME280;14312;52.614;13.496;2023-04-10T02:31:05;101928.72;;;7.37;59.27
26697;BME280;14312;52.614;13.496;2023-04-10T02:33:51;101930.09;;;7.33;59.28
26697;BME280;14312;52.614;13.496;2023-04-10T02:36:38;101929.47;;;7.31;59.25
26697;BME280;14312;52.614;13.496;2023-04-10T02:39:24;101927.00;;;7.30;59.42
26697;BME280;14312;52.614;13.496;2023-04-10T02:42:10;101928.59;;;7.24;59.55
26697;BME280;14312;52.614;13.496;2023-04-10T02:44:56;101921.63;;;7.23;59.32
26697;BME280;14312;52.614;13.496;2023-04-10T02:47:42;101931.41;;;7.23;59.37
26697;BME280;14312;52.614;13.496;2023-04-10T02:50:28;101921.34;;;7.18;59.71
26697;BME280;14312;52.614;13.496;2023-04-10T02:53:17;101928.28;;;7.19;59.49
26697;BME280;14312;52.614;13.496;2023-04-10T02:56:04;101929.69;;;7.15;59.35
26697;BME280;14312;52.614;13.496;2023-04-10T02:58:56;101933.50;;;7.13;59.46
26697;BME280;14312;52.614;13.496;2023-04-10T03:01:42;101927.13;;;7.07;59.23
26697;BME280;14312;52.614;13.496;2023-04-10T03:04:31;101935.44;;;7.04;59.50
26697;BME280;14312;52.614;13.496;2023-04-10T03:07:17;101931.72;;;6.98;59.10
26697;BME280;14312;52.614;13.496;2023-04-10T03:10:03;101933.09;;;6.94;59.42
26697;BME280;14312;52.614;13.496;2023-04-10T03:12:49;101934.66;;;6.89;59.34
26697;BME280;14312;52.614;13.496;2023-04-10T03:15:35;101933.34;;;6.85;59.07
26697;BME280;14312;52.614;13.496;2023-04-10T03:18:21;101936.56;;;6.80;59.43
26697;BME280;14312;52.614;13.496;2023-04-10T03:21:07;101941.41;;;6.77;59.55
26697;BME280;14312;52.614;13.496;2023-04-10T03:23:53;101942.41;;;6.76;59.55
26697;BME280;14312;52.614;13.496;2023-04-10T03:26:39;101935.66;;;6.73;59.72
26697;BME280;14312;52.614;13.496;2023-04-10T03:29:25;101927.88;;;6.72;59.38
26697;BME280;14312;52.614;13.496;2023-04-10T03:32:11;101933.53;;;6.68;59.41
26697;BME280;14312;52.614;13.496;2023-04-10T03:34:57;101935.56;;;6.66;59.53
26697;BME280;14312;52.614;13.496;2023-04-10T03:37:43;101939.56;;;6.62;59.75
26697;BME280;14312;52.614;13.496;2023-04-10T03:40:30;101941.59;;;6.60;59.55
26697;BME280;14312;52.614;13.496;2023-04-10T03:43:16;101939.13;;;6.59;59.72
26697;BME280;14312;52.614;13.496;2023-04-10T03:46:02;101939.28;;;6.57;59.96
26697;BME280;14312;52.614;13.496;2023-04-10T03:48:47;101938.63;;;6.55;59.90
26697;BME280;14312;52.614;13.496;2023-04-10T03:51:35;101936.00;;;6.55;59.40
26697;BME280;14312;52.614;13.496;2023-04-10T03:54:21;101930.69;;;6.55;59.96
26697;BME280;14312;52.614;13.496;2023-04-10T03:57:07;101940.66;;;6.53;59.74
26697;BME280;14312;52.614;13.496;2023-04-10T03:59:53;101939.03;;;6.52;59.64
26697;BME280;14312;52.614;13.496;2023-04-10T04:02:39;101938.38;;;6.50;59.48
26697;BME280;14312;52.614;13.496;2023-04-10T04:05:25;101940.53;;;6.47;59.89
26697;BME280;14312;52.614;13.496;2023-04-10T04:08:11;101942.56;;;6.45;59.73
26697;BME280;14312;52.614;13.496;2023-04-10T04:10:58;101941.91;;;6.43;59.84
26697;BME280;14312;52.614;13.496;2023-04-10T04:13:44;101936.81;;;6.41;59.79
26697;BME280;14312;52.614;13.496;2023-04-10T04:16:30;101937.78;;;6.40;59.74
26697;BME280;14312;52.614;13.496;2023-04-10T04:19:16;101933.53;;;6.39;60.02
26697;BME280;14312;52.614;13.496;2023-04-10T04:22:02;101934.69;;;6.37;59.78
26697;BME280;14312;52.614;13.496;2023-04-10T04:24:48;101933.88;;;6.36;59.65
26697;BME280;14312;52.614;13.496;2023-04-10T04:27:34;101940.34;;;6.34;59.68
26697;BME280;14312;52.614;13.496;2023-04-10T04:30:21;101939.06;;;6.29;59.49
26697;BME280;14312;52.614;13.496;2023-04-10T04:33:07;101934.13;;;6.26;59.40
26697;BME280;14312;52.614;13.496;2023-04-10T04:35:53;101940.78;;;6.22;59.74
26697;BME280;14312;52.614;13.496;2023-04-10T04:38:38;101939.69;;;6.17;59.55
26697;BME280;14312;52.614;13.496;2023-04-10T04:41:24;101937.75;;;6.11;59.72
26697;BME280;14312;52.614;13.496;2023-04-10T04:44:10;101943.38;;;6.08;59.75
26697;BME280;14312;52.614;13.496;2023-04-10T04:46:56;101944.38;;;6.07;59.75
26697;BME280;14312;52.614;13.496;2023-04-10T04:49:42;101939.25;;;6.05;60.14
26697;BME280;14312;52.614;13.496;2023-04-10T04:52:28;101941.09;;;6.05;60.25
26697;BME280;14312;52.614;13.496;2023-04-10T04:55:14;101948.84;;;6.06;60.40
26697;BME280;14312;52.614;13.496;2023-04-10T04:58:00;101938.09;;;6.08;60.33
26697;BME280;14312;52.614;13.496;2023-04-10T05:00:46;101942.41;;;6.09;60.12
26697;BME280;14312;52.614;13.496;2023-04-10T05:03:32;101938.75;;;6.10;60.54
26697;BME280;14312;52.614;13.496;2023-04-10T05:06:18;101940.41;;;6.11;60.12
26697;BME280;14312;52.614;13.496;2023-04-10T05:09:05;101940.41;;;6.11;60.25
26697;BME280;14312;52.614;13.496;2023-04-10T05:11:50;101939.38;;;6.12;60.30
26697;BME280;14312;52.614;13.496;2023-04-10T05:14:38;101940.03;;;6.14;60.44
26697;BME280;14312;52.614;13.496;2023-04-10T05:17:24;101944.16;;;6.16;60.70
26697;BME280;14312;52.614;13.496;2023-04-10T05:20:11;101944.25;;;6.23;60.71
26697;BME280;14312;52.614;13.496;2023-04-10T05:22:56;101935.59;;;6.29;60.87
26697;BME280;14312;52.614;13.496;2023-04-10T05:25:42;101945.13;;;6.38;61.12
26697;BME280;14312;52.614;13.496;2023-04-10T05:28:28;101947.69;;;6.46;61.15
26697;BME280;14312;52.614;13.496;2023-04-10T05:31:14;101949.22;;;6.55;61.21
26697;BME280;14312;52.614;13.496;2023-04-10T05:34:00;101956.75;;;6.66;61.27
26697;BME280;14312;52.614;13.496;2023-04-10T05:36:46;101951.16;;;6.76;61.48
26697;BME280;14312;52.614;13.496;2023-04-10T05:39:35;101953.81;;;6.91;61.63
26697;BME280;14312;52.614;13.496;2023-04-10T05:42:21;101954.00;;;7.04;61.80
26697;BME280;14312;52.614;13.496;2023-04-10T05:45:07;101953.81;;;7.20;61.77
26697;BME280;14312;52.614;13.496;2023-04-10T05:47:53;101949.94;;;7.37;61.78
26697;BME280;14312;52.614;13.496;2023-04-10T05:50:39;101942.38;;;7.56;61.86
26697;BME280;14312;52.614;13.496;2023-04-10T05:53:28;101944.22;;;7.76;62.48
26697;BME280;14312;52.614;13.496;2023-04-10T05:56:18;101942.81;;;7.95;62.22
26697;BME280;14312;52.614;13.496;2023-04-10T05:59:03;101938.47;;;8.15;61.88
26697;BME280;14312;52.614;13.496;2023-04-10T06:01:49;101946.19;;;8.32;61.53
26697;BME280;14312;52.614;13.496;2023-04-10T06:04:36;101948.56;;;8.48;61.59
26697;BME280;14312;52.614;13.496;2023-04-10T06:07:22;101935.16;;;8.62;61.50
26697;BME280;14312;52.614;13.496;2023-04-10T06:10:09;101946.50;;;8.78;61.75
26697;BME280;14312;52.614;13.496;2023-04-10T06:12:55;101941.06;;;8.92;61.98
26697;BME280;14312;52.614;13.496;2023-04-10T06:15:41;101943.59;;;9.07;61.79
26697;BME280;14312;52.614;13.496;2023-04-10T06:18:27;101935.50;;;9.22;61.96
26697;BME280;14312;52.614;13.496;2023-04-10T06:21:13;101931.44;;;9.39;61.85
26697;BME280;14312;52.614;13.496;2023-04-10T06:23:59;101932.94;;;9.55;62.09
26697;BME280;14312;52.614;13.496;2023-04-10T06:26:45;101931.72;;;9.70;62.08
26697;BME280;14312;52.614;13.496;2023-04-10T06:29:31;101930.31;;;9.88;61.51
26697;BME280;14312;52.614;13.496;2023-04-10T06:32:17;101931.97;;;10.02;61.68
26697;BME280;14312;52.614;13.496;2023-04-10T06:35:03;101940.59;;;10.17;61.63
26697;BME280;14312;52.614;13.496;2023-04-10T06:37:48;101925.66;;;10.29;61.42
26697;BME280;14312;52.614;13.496;2023-04-10T06:40:34;101929.97;;;10.43;61.34
26697;BME280;14312;52.614;13.496;2023-04-10T06:43:21;101925.81;;;10.54;61.35
26697;BME280;14312;52.614;13.496;2023-04-10T06:46:06;101923.94;;;10.68;61.22
26697;BME280;14312;52.614;13.496;2023-04-10T06:48:52;101921.25;;;10.81;61.35
26697;BME280;14312;52.614;13.496;2023-04-10T06:51:38;101924.94;;;10.93;61.43
26697;BME280;14312;52.614;13.496;2023-04-10T06:54:24;101923.63;;;11.09;61.39
26697;BME280;14312;52.614;13.496;2023-04-10T06:57:10;101922.75;;;11.21;61.34
26697;BME280;14312;52.614;13.496;2023-04-10T06:59:56;101912.03;;;11.34;61.27
26697;BME280;14312;52.614;13.496;2023-04-10T07:02:42;101916.47;;;11.47;61.15
26697;BME280;14312;52.614;13.496;2023-04-10T07:05:28;101914.75;;;11.59;61.40
26697;BME280;14312;52.614;13.496;2023-04-10T07:08:14;101917.56;;;11.71;61.30
26697;BME280;14312;52.614;13.496;2023-04-10T07:11:00;101924.91;;;11.82;61.22
26697;BME280;14312;52.614;13.496;2023-04-10T07:13:46;101903.88;;;11.92;61.05
26697;BME280;14312;52.614;13.496;2023-04-10T07:16:32;101914.88;;;12.02;61.07
26697;BME280;14312;52.614;13.496;2023-04-10T07:19:18;101906.38;;;12.12;61.09
26697;BME280;14312;52.614;13.496;2023-04-10T07:22:05;101915.38;;;12.18;60.85
26697;BME280;14312;52.614;13.496;2023-04-10T07:24:52;101917.16;;;12.24;60.87
26697;BME280;14312;52.614;13.496;2023-04-10T07:27:38;101922.69;;;12.29;60.99
26697;BME280;14312;52.614;13.496;2023-04-10T07:30:24;101929.22;;;12.33;60.99
26697;BME280;14312;52.614;13.496;2023-04-10T07:33:10;101923.00;;;12.39;61.24
26697;BME280;14312;52.614;13.496;2023-04-10T07:35:56;101927.63;;;12.50;61.13
26697;BME280;14312;52.614;13.496;2023-04-10T07:38:42;101916.63;;;12.58;61.23
26697;BME280;14312;52.614;13.496;2023-04-10T07:41:28;101912.03;;;12.65;61.29
26697;BME280;14312;52.614;13.496;2023-04-10T07:44:14;101908.84;;;12.75;61.30
26697;BME280;14312;52.614;13.496;2023-04-10T07:47:00;101906.25;;;12.86;61.53
26697;BME280;14312;52.614;13.496;2023-04-10T07:49:46;101905.28;;;12.99;61.39
26697;BME280;14312;52.614;13.496;2023-04-10T07:52:32;101900.63;;;13.13;61.19
26697;BME280;14312;52.614;13.496;2023-04-10T07:55:18;101892.19;;;13.27;61.36
26697;BME280;14312;52.614;13.496;2023-04-10T07:58:04;101892.34;;;13.44;61.24
26697;BME280;14312;52.614;13.496;2023-04-10T08:00:51;101889.94;;;13.54;61.04
26697;BME280;14312;52.614;13.496;2023-04-10T08:03:41;101893.94;;;13.63;61.10
26697;BME280;14312;52.614;13.496;2023-04-10T08:06:27;101884.50;;;13.72;60.87
26697;BME280;14312;52.614;13.496;2023-04-10T08:09:13;101879.41;;;13.83;60.92
26697;BME280;14312;52.614;13.496;2023-04-10T08:11:59;101881.28;;;13.94;61.02
26697;BME280;14312;52.614;13.496;2023-04-10T08:14:45;101876.88;;;14.11;61.09
26697;BME280;14312;52.614;13.496;2023-04-10T08:17:31;101871.38;;;14.29;60.89
26697;BME280;14312;52.614;13.496;2023-04-10T08:20:16;101872.81;;;14.43;60.70
26697;BME280;14312;52.614;13.496;2023-04-10T08:23:02;101867.78;;;14.59;61.03
26697;BME280;14312;52.614;13.496;2023-04-10T08:25:49;101863.31;;;14.76;61.45
26697;BME280;14312;52.614;13.496;2023-04-10T08:28:35;101877.81;;;15.03;61.18
26697;BME280;14312;52.614;13.496;2023-04-10T08:31:22;101879.13;;;15.29;61.04
26697;BME280;14312;52.614;13.496;2023-04-10T08:34:08;101872.38;;;15.55;60.16
26697;BME280;14312;52.614;13.496;2023-04-10T08:36:55;101872.72;;;15.75;60.40
26697;BME280;14312;52.614;13.496;2023-04-10T08:39:42;101872.88;;;16.02;60.82
26697;BME280;14312;52.614;13.496;2023-04-10T08:42:27;101872.00;;;16.35;60.85
26697;BME280;14312;52.614;13.496;2023-04-10T08:45:13;101864.44;;;16.70;60.60
26697;BME280;14312;52.614;13.496;2023-04-10T08:48:02;101863.31;;;17.10;60.06
26697;BME280;14312;52.614;13.496;2023-04-10T08:50:50;101860.44;;;17.48;55.88
26697;BME280;14312;52.614;13.496;2023-04-10T08:53:39;101852.63;;;17.74;56.12
26697;BME280;14312;52.614;13.496;2023-04-10T08:56:30;101852.78;;;17.94;56.47
26697;BME280;14312;52.614;13.496;2023-04-10T08:59:17;101851.84;;;18.15;55.71
26697;BME280;14312;52.614;13.496;2023-04-10T09:02:04;101852.50;;;18.37;54.29
26697;BME280;14312;52.614;13.496;2023-04-10T09:04:51;101850.19;;;18.56;53.16
26697;BME280;14312;52.614;13.496;2023-04-10T09:07:39;101837.56;;;18.72;50.55
26697;BME280;14312;52.614;13.496;2023-04-10T09:10:26;101828.97;;;18.80;50.74
26697;BME280;14312;52.614;13.496;2023-04-10T09:13:12;101826.81;;;18.87;52.17
26697;BME280;14312;52.614;13.496;2023-04-10T09:15:58;101829.00;;;19.00;53.38
26697;BME280;14312;52.614;13.496;2023-04-10T09:18:46;101825.56;;;19.25;51.25
26697;BME280;14312;52.614;13.496;2023-04-10T09:21:32;101814.75;;;19.45;49.22
26697;BME280;14312;52.614;13.496;2023-04-10T09:24:18;101807.75;;;19.54;48.05
26697;BME280;14312;52.614;13.496;2023-04-10T09:27:05;101812.88;;;19.56;49.27
26697;BME280;14312;52.614;13.496;2023-04-10T09:29:51;101806.69;;;19.61;50.46
26697;BME280;14312;52.614;13.496;2023-04-10T09:32:43;101799.34;;;19.76;50.67
26697;BME280;14312;52.614;13.496;2023-04-10T09:35:37;101794.72;;;19.97;50.50
26697;BME280;14312;52.614;13.496;2023-04-10T09:38:24;101801.44;;;20.15;50.40
26697;BME280;14312;52.614;13.496;2023-04-10T09:41:10;101797.31;;;20.32;51.06
26697;BME280;14312;52.614;13.496;2023-04-10T09:44:08;101791.03;;;20.57;48.40
26697;BME280;14312;52.614;13.496;2023-04-10T09:46:54;101784.44;;;20.68;47.67
26697;BME280;14312;52.614;13.496;2023-04-10T09:49:48;101776.81;;;20.76;46.15
26697;BME280;14312;52.614;13.496;2023-04-10T09:52:34;101771.44;;;20.70;45.01
26697;BME280;14312;52.614;13.496;2023-04-10T09:55:20;101766.06;;;20.60;46.73
26697;BME280;14312;52.614;13.496;2023-04-10T09:58:06;101768.81;;;20.55;46.86
26697;BME280;14312;52.614;13.496;2023-04-10T10:00:53;101762.34;;;20.51;47.72
26697;BME280;14312;52.614;13.496;2023-04-10T10:03:39;101760.66;;;20.60;47.66
26697;BME280;14312;52.614;13.496;2023-04-10T10:06:26;101752.75;;;20.69;48.41
26697;BME280;14312;52.614;13.496;2023-04-10T10:09:12;101754.06;;;20.82;48.45
26697;BME280;14312;52.614;13.496;2023-04-10T10:11:59;101745.69;;;21.12;45.66
26697;BME280;14312;52.614;13.496;2023-04-10T10:15:11;101743.50;;;21.14;46.49
26697;BME280;14312;52.614;13.496;2023-04-10T10:18:03;101734.53;;;21.19;46.29
26697;BME280;14312;52.614;13.496;2023-04-10T10:20:52;101734.47;;;21.29;46.58
26697;BME280;14312;52.614;13.496;2023-04-10T10:23:39;101737.88;;;21.39;46.81
26697;BME280;14312;52.614;13.496;2023-04-10T10:26:31;101730.72;;;21.54;45.00
26697;BME280;14312;52.614;13.496;2023-04-10T10:29:20;101727.38;;;21.62;46.13
26697;BME280;14312;52.614;13.496;2023-04-10T10:32:10;101718.84;;;21.73;43.36
26697;BME280;14312;52.614;13.496;2023-04-10T10:34:56;101718.59;;;21.70;44.27
26697;BME280;14312;52.614;13.496;2023-04-10T10:37:42;101710.75;;;21.68;44.78
26697;BME280;14312;52.614;13.496;2023-04-10T10:46:40;101702.78;;;21.77;44.68
26697;BME280;14312;52.614;13.496;2023-04-10T10:50:02;101694.03;;;21.85;45.19
26697;BME280;14312;52.614;13.496;2023-04-10T10:52:50;101690.09;;;21.96;45.60
26697;BME280;14312;52.614;13.496;2023-04-10T10:55:42;101685.00;;;22.13;45.03
26697;BME280;14312;52.614;13.496;2023-04-10T10:58:45;101679.31;;;22.34;42.56
26697;BME280;14312;52.614;13.496;2023-04-10T11:01:31;101680.47;;;22.27;42.90
26697;BME280;14312;52.614;13.496;2023-04-10T11:04:43;101679.66;;;22.27;43.80
26697;BME280;14312;52.614;13.496;2023-04-10T11:11:02;101669.94;;;22.45;42.66
26697;BME280;14312;52.614;13.496;2023-04-10T11:16:44;101663.63;;;22.31;43.69
26697;BME280;14312;52.614;13.496;2023-04-10T11:19:59;101665.06;;;22.42;43.24
26697;BME280;14312;52.614;13.496;2023-04-10T11:23:08;101656.03;;;22.46;43.63
26697;BME280;14312;52.614;13.496;2023-04-10T11:25:57;101653.47;;;22.55;43.90
26697;BME280;14312;52.614;13.496;2023-04-10T11:28:43;101647.28;;;22.68;43.89
26697;BME280;14312;52.614;13.496;2023-04-10T11:31:29;101648.16;;;22.82;44.06
26697;BME280;14312;52.614;13.496;2023-04-10T11:34:16;101643.56;;;22.96;43.84
26697;BME280;14312;52.614;13.496;2023-04-10T11:37:02;101636.75;;;23.13;43.67
26697;BME280;14312;52.614;13.496;2023-04-10T11:40:02;101635.38;;;23.29;43.20
26697;BME280;14312;52.614;13.496;2023-04-10T11:42:48;101623.72;;;23.42;41.85
26697;BME280;14312;52.614;13.496;2023-04-10T11:45:34;101624.16;;;23.49;40.93
26697;BME280;14312;52.614;13.496;2023-04-10T11:48:20;101622.53;;;23.48;40.13
26697;BME280;14312;52.614;13.496;2023-04-10T11:51:08;101614.44;;;23.43;39.10
26697;BME280;14312;52.614;13.496;2023-04-10T11:54:07;101605.75;;;23.27;39.54
26697;BME280;14312;52.614;13.496;2023-04-10T11:57:04;101615.31;;;23.11;40.22
26697;BME280;14312;52.614;13.496;2023-04-10T11:59:51;101605.91;;;23.03;40.41
26697;BME280;14312;52.614;13.496;2023-04-10T12:02:51;101594.97;;;23.09;41.11
26697;BME280;14312;52.614;13.496;2023-04-10T12:05:46;101586.50;;;23.24;40.63
26697;BME280;14312;52.614;13.496;2023-04-10T12:11:20;101579.78;;;23.35;36.79
26697;BME280;14312;52.614;13.496;2023-04-10T12:14:07;101579.56;;;23.18;35.54
26697;BME280;14312;52.614;13.496;2023-04-10T12:16:53;101571.97;;;22.69;37.80
26697;BME280;14312;52.614;13.496;2023-04-10T12:19:39;101564.84;;;22.59;38.72
26697;BME280;14312;52.614;13.496;2023-04-10T12:22:25;101559.88;;;22.61;39.62
26697;BME280;14312;52.614;13.496;2023-04-10T12:25:11;101567.59;;;22.73;38.50
26697;BME280;14312;52.614;13.496;2023-04-10T12:27:57;101557.34;;;22.83;36.54
26697;BME280;14312;52.614;13.496;2023-04-10T12:30:50;101557.75;;;22.77;37.28
26697;BME280;14312;52.614;13.496;2023-04-10T12:33:44;101556.50;;;22.69;38.22
26697;BME280;14312;52.614;13.496;2023-04-10T12:36:30;101549.88;;;22.75;37.54
26697;BME280;14312;52.614;13.496;2023-04-10T12:39:23;101540.03;;;22.79;37.70
26697;BME280;14312;52.614;13.496;2023-04-10T12:42:19;101542.66;;;22.84;37.38
26697;BME280;14312;52.614;13.496;2023-04-10T12:45:07;101533.81;;;22.92;37.01
26697;BME280;14312;52.614;13.496;2023-04-10T12:47:54;101529.38;;;22.96;36.58
26697;BME280;14312;52.614;13.496;2023-04-10T12:50:47;101523.06;;;23.01;37.21
26697;BME280;14312;52.614;13.496;2023-04-10T12:53:45;101513.06;;;22.96;36.85
26697;BME280;14312;52.614;13.496;2023-04-10T12:56:43;101513.28;;;22.86;36.76
26697;BME280;14312;52.614;13.496;2023-04-10T12:59:32;101502.13;;;22.69;36.90
26697;BME280;14312;52.614;13.496;2023-04-10T13:02:18;101498.09;;;22.66;36.66
26697;BME280;14312;52.614;13.496;2023-04-10T13:05:07;101494.19;;;22.59;37.14
26697;BME280;14312;52.614;13.496;2023-04-10T13:07:53;101495.44;;;22.48;37.15
26697;BME280;14312;52.614;13.496;2023-04-10T13:10:42;101487.19;;;22.39;37.26
26697;BME280;14312;52.614;13.496;2023-04-10T13:13:31;101471.78;;;22.35;38.22
26697;BME280;14312;52.614;13.496;2023-04-10T13:16:17;101464.25;;;22.45;38.40
26697;BME280;14312;52.614;13.496;2023-04-10T13:19:03;101467.09;;;22.67;38.77
26697;BME280;14312;52.614;13.496;2023-04-10T13:21:49;101457.06;;;22.95;38.21
26697;BME280;14312;52.614;13.496;2023-04-10T13:24:36;101439.94;;;23.22;38.74
26697;BME280;14312;52.614;13.496;2023-04-10T13:27:23;101431.63;;;23.55;38.88
26697;BME280;14312;52.614;13.496;2023-04-10T13:30:09;101423.94;;;23.93;37.09
26697;BME280;14312;52.614;13.496;2023-04-10T13:32:54;101426.53;;;24.20;37.06
26697;BME280;14312;52.614;13.496;2023-04-10T13:35:43;101411.75;;;24.43;36.53
26697;BME280;14312;52.614;13.496;2023-04-10T13:38:29;101413.16;;;24.72;36.03
26697;BME280;14312;52.614;13.496;2023-04-10T13:41:17;101410.53;;;25.06;35.83
26697;BME280;14312;52.614;13.496;2023-04-10T13:44:06;101403.81;;;25.29;33.41
26697;BME280;14312;52.614;13.496;2023-04-10T13:46:55;101385.53;;;25.21;32.87
26697;BME280;14312;52.614;13.496;2023-04-10T13:49:46;101389.50;;;24.98;32.31
26697;BME280;14312;52.614;13.496;2023-04-10T13:52:33;101377.03;;;24.57;32.16
26697;BME280;14312;52.614;13.496;2023-04-10T13:55:19;101386.53;;;24.07;33.02
26697;BME280;14312;52.614;13.496;2023-04-10T13:58:05;101389.16;;;23.67;33.13
26697;BME280;14312;52.614;13.496;2023-04-10T14:00:51;101387.34;;;23.27;34.36
26697;BME280;14312;52.614;13.496;2023-04-10T14:03:38;101370.47;;;23.02;35.29
26697;BME280;14312;52.614;13.496;2023-04-10T14:06:24;101367.88;;;22.97;36.11
26697;BME280;14312;52.614;13.496;2023-04-10T14:09:10;101366.75;;;23.12;37.07
26697;BME280;14312;52.614;13.496;2023-04-10T14:11:56;101367.72;;;23.52;36.84
26697;BME280;14312;52.614;13.496;2023-04-10T14:14:43;101358.59;;;23.93;35.79
26697;BME280;14312;52.614;13.496;2023-04-10T14:17:29;101360.34;;;24.19;35.55
26697;BME280;14312;52.614;13.496;2023-04-10T14:20:15;101349.34;;;24.33;36.05
26697;BME280;14312;52.614;13.496;2023-04-10T14:23:01;101347.16;;;24.52;36.01
26697;BME280;14312;52.614;13.496;2023-04-10T14:25:48;101348.97;;;24.74;35.48
26697;BME280;14312;52.614;13.496;2023-04-10T14:28:35;101348.19;;;24.74;35.11
26697;BME280;14312;52.614;13.496;2023-04-10T14:31:21;101345.91;;;24.58;34.74
26697;BME280;14312;52.614;13.496;2023-04-10T14:34:07;101343.28;;;24.36;34.28
26697;BME280;14312;52.614;13.496;2023-04-10T14:36:53;101335.75;;;24.11;33.72
26697;BME280;14312;52.614;13.496;2023-04-10T14:39:43;101341.22;;;23.80;34.99
26697;BME280;14312;52.614;13.496;2023-04-10T14:42:29;101333.59;;;23.68;34.98
26697;BME280;14312;52.614;13.496;2023-04-10T14:45:15;101318.28;;;23.72;35.39
26697;BME280;14312;52.614;13.496;2023-04-10T14:48:03;101316.56;;;23.85;35.11